Terminal Aerodrome Forecast
Issued by NWS

Current Version | Previous Version | Text Only | Print | Product List | Glossary Off
Versions: 1 2 3 4 5 6 7 8 9 10 11 12 13

000
FTUS41 KPBZ 261721
TAFHLG
TAF
KHLG 261721Z 2618/2718 18009G18KT P6SM BKN040
     FM262300 18005KT P6SM VCSH BKN050
      TEMPO 2700/2704 3SM -SHRA BKN025
     FM270400 20003KT 5SM BR BKN025
     FM271300 21008KT P6SM BKN035=

USA.gov is the U.S. government's official web portal to all federal, state and local government web resources and services.